Time;durP1;ratioP1;P1;durP2;ratioP2;P2;SDS_P1;SDS_P2;PMS_P1;PMS_P2;Temp;Humidity;BMP_temperature;BMP_pressure;BME280_temperature;BME280_humidity;BME280_pressure;Samples;Min_cycle;Max_cycle;Signal;HPM_P1;HPM_P2
2023/03/28 00:00:00;;;;;;;2.9;2.8;;;;;;;2.3;100.0;102460;;;;
2023/03/28 00:01:01;;;;;;;2.9;2.8;;;;;;;2.3;100.0;102460;;;;
2023/03/28 00:02:00;;;;;;;2.9;2.8;;;;;;;2.2;100.0;102450;;;;
2023/03/28 00:03:00;;;;;;;2.9;2.8;;;;;;;2.2;100.0;102450;;;;
2023/03/28 00:04:00;;;;;;;2.9;2.8;;;;;;;2.2;100.0;102450;;;;
2023/03/28 00:05:01;;;;;;;2.9;2.8;;;;;;;2.2;100.0;102450;;;;
2023/03/28 00:06:01;;;;;;;2.9;2.8;;;;;;;2.2;100.0;102460;;;;
2023/03/28 00:07:00;;;;;;;2.9;2.8;;;;;;;2.2;100.0;102460;;;;
2023/03/28 00:08:00;;;;;;;2.9;2.8;;;;;;;2.2;100.0;102460;;;;
2023/03/28 00:09:00;;;;;;;2.9;2.8;;;;;;;2.2;100.0;102460;;;;
2023/03/28 00:10:00;;;;;;;2.9;2.8;;;;;;;2.2;100.0;102450;;;;
2023/03/28 00:11:01;;;;;;;2.9;2.8;;;;;;;2.2;100.0;102450;;;;
2023/03/28 00:12:00;;;;;;;2.9;2.8;;;;;;;2.2;100.0;102450;;;;
2023/03/28 00:13:00;;;;;;;2.9;2.8;;;;;;;2.2;100.0;102450;;;;
2023/03/28 00:14:00;;;;;;;2.9;2.8;;;;;;;2.2;100.0;102450;;;;
2023/03/28 00:15:03;;;;;;;2.4;2.4;;;;;;;2.2;100.0;102450;;;;
2023/03/28 00:16:02;;;;;;;2.4;2.4;;;;;;;2.2;100.0;102450;;;;
2023/03/28 00:17:00;;;;;;;2.4;2.4;;;;;;;2.2;100.0;102450;;;;
2023/03/28 00:18:00;;;;;;;2.4;2.4;;;;;;;2.2;100.0;102450;;;;
2023/03/28 00:19:02;;;;;;;2.4;2.4;;;;;;;2.2;100.0;102450;;;;
2023/03/28 00:20:03;;;;;;;2.4;2.4;;;;;;;2.1;100.0;102450;;;;
2023/03/28 00:21:00;;;;;;;2.4;2.4;;;;;;;2.1;100.0;102450;;;;
2023/03/28 00:22:00;;;;;;;2.4;2.4;;;;;;;2.1;100.0;102450;;;;
2023/03/28 00:23:00;;;;;;;2.4;2.4;;;;;;;2.1;100.0;102450;;;;
2023/03/28 00:24:01;;;;;;;2.4;2.4;;;;;;;2.1;100.0;102440;;;;
2023/03/28 00:25:01;;;;;;;2.4;2.4;;;;;;;2.1;100.0;102440;;;;
2023/03/28 00:26:06;;;;;;;2.4;2.4;;;;;;;2.0;100.0;102440;;;;
2023/03/28 00:27:00;;;;;;;2.4;2.4;;;;;;;2.0;100.0;102440;;;;
2023/03/28 00:28:00;;;;;;;2.4;2.4;;;;;;;2.0;100.0;102450;;;;
2023/03/28 00:29:01;;;;;;;2.4;2.4;;;;;;;2.0;100.0;102450;;;;
2023/03/28 00:30:01;;;;;;;2.4;2.4;;;;;;;1.9;100.0;102450;;;;
2023/03/28 00:31:02;;;;;;;2.4;2.4;;;;;;;1.9;100.0;102450;;;;
2023/03/28 00:32:00;;;;;;;2.4;2.4;;;;;;;2.0;100.0;102460;;;;
2023/03/28 00:33:00;;;;;;;2.4;2.4;;;;;;;2.0;100.0;102460;;;;
2023/03/28 00:34:00;;;;;;;2.4;2.4;;;;;;;1.9;100.0;102460;;;;
2023/03/28 00:35:00;;;;;;;2.8;2.7;;;;;;;1.9;100.0;102460;;;;
2023/03/28 00:36:00;;;;;;;2.8;2.7;;;;;;;1.9;100.0;102460;;;;
2023/03/28 00:37:02;;;;;;;2.8;2.7;;;;;;;1.9;100.0;102460;;;;
2023/03/28 00:38:00;;;;;;;2.8;2.7;;;;;;;1.9;100.0;102450;;;;
2023/03/28 00:39:04;;;;;;;2.8;2.7;;;;;;;1.9;100.0;102450;;;;
2023/03/28 00:40:00;;;;;;;2.8;2.7;;;;;;;1.8;100.0;102460;;;;
2023/03/28 00:41:00;;;;;;;2.8;2.7;;;;;;;1.8;100.0;102460;;;;
2023/03/28 00:42:01;;;;;;;2.8;2.7;;;;;;;1.9;100.0;102450;;;;
2023/03/28 00:43:00;;;;;;;2.8;2.7;;;;;;;1.9;100.0;102450;;;;
2023/03/28 00:44:00;;;;;;;2.8;2.7;;;;;;;1.8;100.0;102450;;;;
2023/03/28 00:45:00;;;;;;;2.8;2.7;;;;;;;1.8;100.0;102450;;;;
2023/03/28 00:46:09;;;;;;;2.8;2.7;;;;;;;1.8;100.0;102450;;;;
2023/03/28 00:47:00;;;;;;;2.8;2.7;;;;;;;1.8;100.0;102450;;;;
2023/03/28 00:48:15;;;;;;;2.8;2.7;;;;;;;1.8;100.0;102450;;;;
2023/03/28 00:49:02;;;;;;;2.8;2.7;;;;;;;1.8;100.0;102450;;;;
2023/03/28 00:50:04;;;;;;;2.8;2.7;;;;;;;1.8;100.0;102450;;;;
2023/03/28 00:51:02;;;;;;;2.8;2.7;;;;;;;1.8;100.0;102450;;;;
2023/03/28 00:52:01;;;;;;;2.8;2.7;;;;;;;1.8;100.0;102460;;;;
2023/03/28 00:53:07;;;;;;;2.8;2.7;;;;;;;1.8;100.0;102460;;;;
2023/03/28 00:54:01;;;;;;;2.8;2.7;;;;;;;1.7;100.0;102460;;;;
2023/03/28 00:55:03;;;;;;;3.2;3.1;;;;;;;1.7;100.0;102460;;;;
2023/03/28 00:56:03;;;;;;;3.2;3.1;;;;;;;1.8;100.0;102450;;;;
2023/03/28 00:57:01;;;;;;;3.2;3.1;;;;;;;1.8;100.0;102450;;;;
2023/03/28 00:58:01;;;;;;;3.2;3.1;;;;;;;1.6;100.0;102450;;;;
2023/03/28 00:59:01;;;;;;;3.2;3.1;;;;;;;1.6;100.0;102450;;;;
2023/03/28 01:00:00;;;;;;;3.2;3.1;;;;;;;1.7;100.0;102460;;;;
2023/03/28 01:01:00;;;;;;;3.2;3.1;;;;;;;1.7;100.0;102460;;;;
2023/03/28 01:02:00;;;;;;;3.2;3.1;;;;;;;1.6;100.0;102460;;;;
2023/03/28 01:03:01;;;;;;;3.2;3.1;;;;;;;1.6;100.0;102460;;;;
2023/03/28 01:04:01;;;;;;;3.2;3.1;;;;;;;1.5;100.0;102460;;;;
2023/03/28 01:05:02;;;;;;;3.2;3.1;;;;;;;1.5;100.0;102460;;;;
2023/03/28 01:06:03;;;;;;;3.2;3.1;;;;;;;1.5;100.0;102460;;;;
2023/03/28 01:07:00;;;;;;;3.2;3.1;;;;;;;1.5;100.0;102460;;;;
2023/03/28 01:08:05;;;;;;;3.2;3.1;;;;;;;1.6;100.0;102460;;;;
2023/03/28 01:09:03;;;;;;;3.2;3.1;;;;;;;1.6;100.0;102460;;;;
2023/03/28 01:10:01;;;;;;;3.2;3.1;;;;;;;1.6;100.0;102460;;;;
2023/03/28 01:11:00;;;;;;;3.2;3.1;;;;;;;1.6;100.0;102460;;;;
2023/03/28 01:12:00;;;;;;;3.2;3.1;;;;;;;1.5;100.0;102460;;;;
2023/03/28 01:13:01;;;;;;;3.2;3.1;;;;;;;1.5;100.0;102460;;;;
2023/03/28 01:14:01;;;;;;;3.2;3.1;;;;;;;1.5;100.0;102460;;;;
2023/03/28 01:15:01;;;;;;;2.9;2.8;;;;;;;1.5;100.0;102460;;;;
2023/03/28 01:16:02;;;;;;;2.9;2.8;;;;;;;1.5;100.0;102460;;;;
2023/03/28 01:17:00;;;;;;;2.9;2.8;;;;;;;1.5;100.0;102460;;;;
2023/03/28 01:18:01;;;;;;;2.9;2.8;;;;;;;1.5;100.0;102460;;;;
2023/03/28 01:19:01;;;;;;;2.9;2.8;;;;;;;1.5;100.0;102460;;;;
2023/03/28 01:20:12;;;;;;;2.9;2.8;;;;;;;1.5;100.0;102450;;;;
2023/03/28 01:21:10;;;;;;;2.9;2.8;;;;;;;1.5;100.0;102450;;;;
2023/03/28 01:22:01;;;;;;;2.9;2.8;;;;;;;1.5;100.0;102450;;;;
2023/03/28 01:23:01;;;;;;;2.9;2.8;;;;;;;1.5;100.0;102450;;;;
2023/03/28 01:24:11;;;;;;;2.9;2.8;;;;;;;1.5;100.0;102450;;;;
2023/03/28 01:25:07;;;;;;;2.9;2.8;;;;;;;1.5;100.0;102450;;;;
2023/03/28 01:26:03;;;;;;;2.9;2.8;;;;;;;1.5;100.0;102450;;;;
2023/03/28 01:27:05;;;;;;;2.9;2.8;;;;;;;1.5;100.0;102450;;;;
2023/03/28 01:28:07;;;;;;;2.9;2.8;;;;;;;1.5;100.0;102450;;;;
2023/03/28 01:29:10;;;;;;;2.9;2.8;;;;;;;1.5;100.0;102450;;;;
2023/03/28 01:30:10;;;;;;;2.9;2.8;;;;;;;1.4;100.0;102450;;;;
2023/03/28 01:31:00;;;;;;;2.9;2.8;;;;;;;1.4;100.0;102450;;;;
2023/03/28 01:32:10;;;;;;;2.9;2.8;;;;;;;1.4;100.0;102440;;;;
2023/03/28 01:33:08;;;;;;;2.9;2.8;;;;;;;1.4;100.0;102440;;;;
2023/03/28 01:34:03;;;;;;;2.9;2.8;;;;;;;1.4;100.0;102440;;;;
2023/03/28 01:35:10;;;;;;;3.2;3.1;;;;;;;1.4;100.0;102440;;;;
2023/03/28 01:36:10;;;;;;;3.2;3.1;;;;;;;1.4;100.0;102440;;;;
2023/03/28 01:37:10;;;;;;;3.2;3.1;;;;;;;1.4;100.0;102440;;;;
2023/03/28 01:38:09;;;;;;;3.2;3.1;;;;;;;1.4;100.0;102430;;;;
2023/03/28 01:39:11;;;;;;;3.2;3.1;;;;;;;1.4;100.0;102430;;;;
2023/03/28 01:40:10;;;;;;;3.2;3.1;;;;;;;1.4;100.0;102440;;;;
2023/03/28 01:41:10;;;;;;;3.2;3.1;;;;;;;1.4;100.0;102440;;;;
2023/03/28 01:42:00;;;;;;;3.2;3.1;;;;;;;1.4;100.0;102440;;;;
2023/03/28 01:43:10;;;;;;;3.2;3.1;;;;;;;1.4;100.0;102440;;;;
2023/03/28 01:44:08;;;;;;;3.2;3.1;;;;;;;1.3;100.0;102440;;;;
2023/03/28 01:45:00;;;;;;;3.2;3.1;;;;;;;1.3;100.0;102440;;;;
2023/03/28 01:46:05;;;;;;;3.2;3.1;;;;;;;1.3;100.0;102440;;;;
2023/03/28 01:47:00;;;;;;;3.2;3.1;;;;;;;1.3;100.0;102440;;;;
2023/03/28 01:48:04;;;;;;;3.2;3.1;;;;;;;1.3;100.0;102440;;;;
2023/03/28 01:49:10;;;;;;;3.2;3.1;;;;;;;1.3;100.0;102440;;;;
2023/03/28 01:50:02;;;;;;;3.2;3.1;;;;;;;1.3;100.0;102440;;;;
2023/03/28 01:51:03;;;;;;;3.2;3.1;;;;;;;1.3;100.0;102440;;;;
2023/03/28 01:52:07;;;;;;;3.2;3.1;;;;;;;1.3;100.0;102440;;;;
2023/03/28 01:53:10;;;;;;;3.2;3.1;;;;;;;1.3;100.0;102440;;;;
2023/03/28 01:54:11;;;;;;;3.2;3.1;;;;;;;1.3;100.0;102450;;;;
2023/03/28 01:55:10;;;;;;;3.0;2.9;;;;;;;1.3;100.0;102450;;;;
2023/03/28 01:56:08;;;;;;;3.0;2.9;;;;;;;1.3;100.0;102440;;;;
2023/03/28 01:57:06;;;;;;;3.0;2.9;;;;;;;1.3;100.0;102440;;;;
2023/03/28 01:58:10;;;;;;;3.0;2.9;;;;;;;1.3;100.0;102440;;;;
2023/03/28 01:59:00;;;;;;;3.0;2.9;;;;;;;1.3;100.0;102440;;;;
2023/03/28 02:00:10;;;;;;;3.0;2.9;;;;;;;1.2;100.0;102440;;;;
2023/03/28 02:01:04;;;;;;;3.0;2.9;;;;;;;1.2;100.0;102440;;;;
2023/03/28 02:02:03;;;;;;;3.0;2.9;;;;;;;1.1;100.0;102440;;;;
2023/03/28 02:03:04;;;;;;;3.0;2.9;;;;;;;1.1;100.0;102440;;;;
2023/03/28 02:04:01;;;;;;;3.0;2.9;;;;;;;1.1;100.0;102430;;;;
2023/03/28 02:05:03;;;;;;;3.0;2.9;;;;;;;1.1;100.0;102430;;;;
2023/03/28 02:06:02;;;;;;;3.0;2.9;;;;;;;1.2;100.0;102430;;;;
2023/03/28 02:07:01;;;;;;;3.0;2.9;;;;;;;1.2;100.0;102430;;;;
2023/03/28 02:08:03;;;;;;;3.0;2.9;;;;;;;1.1;100.0;102430;;;;
2023/03/28 02:09:01;;;;;;;3.0;2.9;;;;;;;1.1;100.0;102430;;;;
2023/03/28 02:10:01;;;;;;;3.0;2.9;;;;;;;1.2;100.0;102430;;;;
2023/03/28 02:11:00;;;;;;;3.0;2.9;;;;;;;1.2;100.0;102430;;;;
2023/03/28 02:12:09;;;;;;;3.0;2.9;;;;;;;1.1;100.0;102430;;;;
2023/03/28 02:13:03;;;;;;;3.0;2.9;;;;;;;1.1;100.0;102430;;;;
2023/03/28 02:14:03;;;;;;;3.0;2.9;;;;;;;1.1;100.0;102430;;;;
2023/03/28 02:15:03;;;;;;;3.2;3.1;;;;;;;1.1;100.0;102430;;;;
2023/03/28 02:16:01;;;;;;;3.2;3.1;;;;;;;1.1;100.0;102430;;;;
2023/03/28 02:17:03;;;;;;;3.2;3.1;;;;;;;1.1;100.0;102430;;;;
2023/03/28 02:18:02;;;;;;;3.2;3.1;;;;;;;1.1;100.0;102430;;;;
2023/03/28 02:19:00;;;;;;;3.2;3.1;;;;;;;1.1;100.0;102430;;;;
2023/03/28 02:20:07;;;;;;;3.2;3.1;;;;;;;1.1;100.0;102430;;;;
2023/03/28 02:21:06;;;;;;;3.2;3.1;;;;;;;1.1;100.0;102430;;;;
2023/03/28 02:22:06;;;;;;;3.2;3.1;;;;;;;1.0;100.0;102430;;;;
2023/03/28 02:23:04;;;;;;;3.2;3.1;;;;;;;1.0;100.0;102430;;;;
2023/03/28 02:24:00;;;;;;;3.2;3.1;;;;;;;1.0;100.0;102430;;;;
2023/03/28 02:25:01;;;;;;;3.2;3.1;;;;;;;1.0;100.0;102430;;;;
2023/03/28 02:26:01;;;;;;;3.2;3.1;;;;;;;1.0;100.0;102430;;;;
2023/03/28 02:27:00;;;;;;;3.2;3.1;;;;;;;1.0;100.0;102430;;;;
2023/03/28 02:28:02;;;;;;;3.2;3.1;;;;;;;1.0;100.0;102430;;;;
2023/03/28 02:29:00;;;;;;;3.2;3.1;;;;;;;1.0;100.0;102430;;;;
2023/03/28 02:30:00;;;;;;;3.2;3.1;;;;;;;0.9;100.0;102430;;;;
2023/03/28 02:31:01;;;;;;;3.2;3.1;;;;;;;0.9;100.0;102430;;;;
2023/03/28 02:32:00;;;;;;;3.2;3.1;;;;;;;1.0;100.0;102430;;;;
2023/03/28 02:33:01;;;;;;;3.2;3.1;;;;;;;1.0;100.0;102430;;;;
2023/03/28 02:34:00;;;;;;;3.2;3.1;;;;;;;1.0;100.0;102430;;;;
2023/03/28 02:35:03;;;;;;;2.8;2.7;;;;;;;1.0;100.0;102430;;;;
2023/03/28 02:36:10;;;;;;;2.8;2.7;;;;;;;0.9;100.0;102430;;;;
2023/03/28 02:37:07;;;;;;;2.8;2.7;;;;;;;0.9;100.0;102430;;;;
2023/03/28 02:38:00;;;;;;;2.8;2.7;;;;;;;0.9;100.0;102430;;;;
2023/03/28 02:39:07;;;;;;;2.8;2.7;;;;;;;0.9;100.0;102430;;;;
2023/03/28 02:40:01;;;;;;;2.8;2.7;;;;;;;0.8;100.0;102430;;;;
2023/03/28 02:41:10;;;;;;;2.8;2.7;;;;;;;0.8;100.0;102430;;;;
2023/03/28 02:42:05;;;;;;;2.8;2.7;;;;;;;0.9;100.0;102430;;;;
2023/03/28 02:43:10;;;;;;;2.8;2.7;;;;;;;0.9;100.0;102430;;;;
2023/03/28 02:44:10;;;;;;;2.8;2.7;;;;;;;0.8;100.0;102430;;;;
2023/03/28 02:45:00;;;;;;;2.8;2.7;;;;;;;0.8;100.0;102430;;;;
2023/03/28 02:46:10;;;;;;;2.8;2.7;;;;;;;0.8;100.0;102440;;;;
2023/03/28 02:47:01;;;;;;;2.8;2.7;;;;;;;0.8;100.0;102440;;;;
2023/03/28 02:48:10;;;;;;;2.8;2.7;;;;;;;0.8;100.0;102440;;;;
2023/03/28 02:49:03;;;;;;;2.8;2.7;;;;;;;0.8;100.0;102440;;;;
2023/03/28 02:50:03;;;;;;;2.8;2.7;;;;;;;0.8;100.0;102440;;;;
2023/03/28 02:51:05;;;;;;;2.8;2.7;;;;;;;0.8;100.0;102440;;;;
2023/03/28 02:52:08;;;;;;;2.8;2.7;;;;;;;0.8;100.0;102440;;;;
2023/03/28 02:53:11;;;;;;;2.8;2.7;;;;;;;0.8;100.0;102440;;;;
2023/03/28 02:54:10;;;;;;;2.8;2.7;;;;;;;0.8;100.0;102440;;;;
2023/03/28 02:55:07;;;;;;;3.2;3.1;;;;;;;0.8;100.0;102440;;;;
2023/03/28 02:56:10;;;;;;;3.2;3.1;;;;;;;0.9;100.0;102440;;;;
2023/03/28 02:57:10;;;;;;;3.2;3.1;;;;;;;0.9;100.0;102440;;;;
2023/03/28 02:58:07;;;;;;;3.2;3.1;;;;;;;0.8;100.0;102440;;;;
2023/03/28 02:59:07;;;;;;;3.2;3.1;;;;;;;0.8;100.0;102440;;;;
2023/03/28 03:00:04;;;;;;;3.2;3.1;;;;;;;0.9;100.0;102440;;;;
2023/03/28 03:01:02;;;;;;;3.2;3.1;;;;;;;0.9;100.0;102440;;;;
2023/03/28 03:02:01;;;;;;;3.2;3.1;;;;;;;0.8;100.0;102430;;;;
2023/03/28 03:03:02;;;;;;;3.2;3.1;;;;;;;0.8;100.0;102430;;;;
2023/03/28 03:04:00;;;;;;;3.2;3.1;;;;;;;0.7;100.0;102430;;;;
2023/03/28 03:05:00;;;;;;;3.2;3.1;;;;;;;0.7;100.0;102430;;;;
2023/03/28 03:06:00;;;;;;;3.2;3.1;;;;;;;0.8;100.0;102430;;;;
2023/03/28 03:07:01;;;;;;;3.2;3.1;;;;;;;0.8;100.0;102430;;;;
2023/03/28 03:08:00;;;;;;;3.2;3.1;;;;;;;0.7;100.0;102430;;;;
2023/03/28 03:09:00;;;;;;;3.2;3.1;;;;;;;0.7;100.0;102430;;;;
2023/03/28 03:10:00;;;;;;;3.2;3.1;;;;;;;0.7;100.0;102430;;;;
2023/03/28 03:11:00;;;;;;;3.2;3.1;;;;;;;0.7;100.0;102430;;;;
2023/03/28 03:12:00;;;;;;;3.2;3.1;;;;;;;0.8;100.0;102420;;;;
2023/03/28 03:13:00;;;;;;;3.2;3.1;;;;;;;0.8;100.0;102420;;;;
2023/03/28 03:14:00;;;;;;;3.2;3.1;;;;;;;0.7;100.0;102420;;;;
2023/03/28 03:15:00;;;;;;;3.2;3.1;;;;;;;0.7;100.0;102420;;;;
2023/03/28 03:16:01;;;;;;;3.2;3.1;;;;;;;0.7;100.0;102420;;;;
2023/03/28 03:17:00;;;;;;;3.2;3.1;;;;;;;0.7;100.0;102420;;;;
2023/03/28 03:18:00;;;;;;;3.2;3.1;;;;;;;0.7;100.0;102430;;;;
2023/03/28 03:19:00;;;;;;;3.2;3.1;;;;;;;0.7;100.0;102430;;;;
2023/03/28 03:20:01;;;;;;;3.2;3.1;;;;;;;0.7;100.0;102430;;;;
2023/03/28 03:21:00;;;;;;;3.2;3.1;;;;;;;0.7;100.0;102430;;;;
2023/03/28 03:22:00;;;;;;;3.2;3.1;;;;;;;0.6;100.0;102430;;;;
2023/03/28 03:23:00;;;;;;;3.2;3.1;;;;;;;0.6;100.0;102430;;;;
2023/03/28 03:24:00;;;;;;;3.2;3.1;;;;;;;0.6;100.0;102430;;;;
2023/03/28 03:25:06;;;;;;;3.2;3.1;;;;;;;0.6;100.0;102430;;;;
2023/03/28 03:26:00;;;;;;;3.2;3.1;;;;;;;0.6;100.0;102430;;;;
2023/03/28 03:27:00;;;;;;;3.2;3.1;;;;;;;0.6;100.0;102430;;;;
2023/03/28 03:28:00;;;;;;;3.2;3.1;;;;;;;0.6;100.0;102430;;;;
2023/03/28 03:29:00;;;;;;;3.2;3.1;;;;;;;0.6;100.0;102430;;;;
2023/03/28 03:30:00;;;;;;;3.2;3.1;;;;;;;0.5;100.0;102430;;;;
2023/03/28 03:31:00;;;;;;;3.2;3.1;;;;;;;0.5;100.0;102430;;;;
2023/03/28 03:32:00;;;;;;;3.2;3.1;;;;;;;0.5;100.0;102430;;;;
2023/03/28 03:33:00;;;;;;;3.2;3.1;;;;;;;0.5;100.0;102430;;;;
2023/03/28 03:34:00;;;;;;;3.2;3.1;;;;;;;0.5;100.0;102430;;;;
2023/03/28 03:35:00;;;;;;;3.5;3.4;;;;;;;0.5;100.0;102430;;;;
2023/03/28 03:36:00;;;;;;;3.5;3.4;;;;;;;0.6;100.0;102430;;;;
2023/03/28 03:37:01;;;;;;;3.5;3.4;;;;;;;0.6;100.0;102430;;;;
2023/03/28 03:38:00;;;;;;;3.5;3.4;;;;;;;0.6;100.0;102430;;;;
2023/03/28 03:39:00;;;;;;;3.5;3.4;;;;;;;0.6;100.0;102430;;;;
2023/03/28 03:40:00;;;;;;;3.5;3.4;;;;;;;0.6;100.0;102430;;;;
2023/03/28 03:41:00;;;;;;;3.5;3.4;;;;;;;0.6;100.0;102430;;;;
2023/03/28 03:42:00;;;;;;;3.5;3.4;;;;;;;0.6;100.0;102430;;;;
2023/03/28 03:43:00;;;;;;;3.5;3.4;;;;;;;0.6;100.0;102430;;;;
2023/03/28 03:44:00;;;;;;;3.5;3.4;;;;;;;0.6;100.0;102430;;;;
2023/03/28 03:45:00;;;;;;;3.5;3.4;;;;;;;0.6;100.0;102430;;;;
2023/03/28 03:46:01;;;;;;;3.5;3.4;;;;;;;0.6;100.0;102430;;;;
2023/03/28 03:47:00;;;;;;;3.5;3.4;;;;;;;0.6;100.0;102430;;;;
2023/03/28 03:48:00;;;;;;;3.5;3.4;;;;;;;0.5;100.0;102430;;;;
2023/03/28 03:49:00;;;;;;;3.5;3.4;;;;;;;0.5;100.0;102430;;;;
2023/03/28 03:50:00;;;;;;;3.5;3.4;;;;;;;0.5;100.0;102430;;;;
2023/03/28 03:51:00;;;;;;;3.5;3.4;;;;;;;0.5;100.0;102430;;;;
2023/03/28 03:52:00;;;;;;;3.5;3.4;;;;;;;0.4;100.0;102420;;;;
2023/03/28 03:53:00;;;;;;;3.5;3.4;;;;;;;0.4;100.0;102420;;;;
2023/03/28 03:54:00;;;;;;;3.2;3.1;;;;;;;0.4;100.0;102420;;;;
2023/03/28 03:55:00;;;;;;;3.2;3.1;;;;;;;0.4;100.0;102420;;;;
2023/03/28 03:56:01;;;;;;;3.2;3.1;;;;;;;0.4;100.0;102420;;;;
2023/03/28 03:57:01;;;;;;;3.2;3.1;;;;;;;0.4;100.0;102420;;;;
2023/03/28 03:58:00;;;;;;;3.2;3.1;;;;;;;0.4;100.0;102420;;;;
2023/03/28 03:59:00;;;;;;;3.2;3.1;;;;;;;0.4;100.0;102420;;;;
2023/03/28 04:00:04;;;;;;;3.2;3.1;;;;;;;0.4;100.0;102430;;;;
2023/03/28 04:01:00;;;;;;;3.2;3.1;;;;;;;0.4;100.0;102430;;;;
2023/03/28 04:02:00;;;;;;;3.2;3.1;;;;;;;0.4;100.0;102430;;;;
2023/03/28 04:03:00;;;;;;;3.2;3.1;;;;;;;0.4;100.0;102430;;;;
2023/03/28 04:04:00;;;;;;;3.2;3.1;;;;;;;0.4;100.0;102420;;;;
2023/03/28 04:05:00;;;;;;;3.2;3.1;;;;;;;0.4;100.0;102420;;;;
2023/03/28 04:06:00;;;;;;;3.2;3.1;;;;;;;0.3;100.0;102430;;;;
2023/03/28 04:07:01;;;;;;;3.2;3.1;;;;;;;0.3;100.0;102430;;;;
2023/03/28 04:08:00;;;;;;;3.2;3.1;;;;;;;0.4;100.0;102430;;;;
2023/03/28 04:09:00;;;;;;;3.2;3.1;;;;;;;0.4;100.0;102430;;;;
2023/03/28 04:10:00;;;;;;;3.2;3.1;;;;;;;0.4;100.0;102430;;;;
2023/03/28 04:11:00;;;;;;;3.2;3.1;;;;;;;0.4;100.0;102430;;;;
2023/03/28 04:12:00;;;;;;;3.2;3.1;;;;;;;0.3;100.0;102430;;;;
2023/03/28 04:13:00;;;;;;;3.2;3.1;;;;;;;0.3;100.0;102430;;;;
2023/03/28 04:14:00;;;;;;;3.2;3.1;;;;;;;0.1;100.0;102430;;;;
2023/03/28 04:15:00;;;;;;;3.2;3.1;;;;;;;0.1;100.0;102430;;;;
2023/03/28 04:16:00;;;;;;;3.2;3.1;;;;;;;0.2;100.0;102430;;;;
2023/03/28 04:17:00;;;;;;;3.2;3.1;;;;;;;0.2;100.0;102430;;;;
2023/03/28 04:18:04;;;;;;;3.2;3.1;;;;;;;0.3;100.0;102430;;;;
2023/03/28 04:19:00;;;;;;;3.2;3.1;;;;;;;0.3;100.0;102430;;;;
2023/03/28 04:20:01;;;;;;;3.2;3.1;;;;;;;0.3;100.0;102430;;;;
2023/03/28 04:21:01;;;;;;;3.2;3.1;;;;;;;0.3;100.0;102430;;;;
2023/03/28 04:22:03;;;;;;;3.2;3.1;;;;;;;0.3;100.0;102430;;;;
2023/03/28 04:23:00;;;;;;;3.2;3.1;;;;;;;0.3;100.0;102430;;;;
2023/03/28 04:24:01;;;;;;;3.2;3.1;;;;;;;0.3;100.0;102430;;;;
2023/03/28 04:25:00;;;;;;;3.2;3.1;;;;;;;0.3;100.0;102430;;;;
2023/03/28 04:26:01;;;;;;;3.2;3.1;;;;;;;0.3;100.0;102430;;;;
2023/03/28 04:27:00;;;;;;;3.2;3.1;;;;;;;0.3;100.0;102430;;;;
2023/03/28 04:28:00;;;;;;;3.2;3.1;;;;;;;0.3;100.0;102430;;;;
2023/03/28 04:29:02;;;;;;;3.2;3.1;;;;;;;0.3;100.0;102430;;;;
2023/03/28 04:30:00;;;;;;;3.2;3.1;;;;;;;0.3;100.0;102420;;;;
2023/03/28 04:31:00;;;;;;;3.2;3.1;;;;;;;0.3;100.0;102420;;;;
2023/03/28 04:32:01;;;;;;;3.2;3.1;;;;;;;0.3;100.0;102420;;;;
2023/03/28 04:33:00;;;;;;;3.2;3.1;;;;;;;0.3;100.0;102420;;;;
2023/03/28 04:34:02;;;;;;;3.2;3.1;;;;;;;0.3;100.0;102420;;;;
2023/03/28 04:35:02;;;;;;;3.2;3.1;;;;;;;0.3;100.0;102420;;;;
2023/03/28 04:36:01;;;;;;;3.2;3.1;;;;;;;0.2;100.0;102420;;;;
2023/03/28 04:37:00;;;;;;;3.2;3.1;;;;;;;0.2;100.0;102420;;;;
2023/03/28 04:38:01;;;;;;;3.2;3.1;;;;;;;0.2;100.0;102420;;;;
2023/03/28 04:39:01;;;;;;;3.2;3.1;;;;;;;0.2;100.0;102420;;;;
2023/03/28 04:40:00;;;;;;;3.2;3.1;;;;;;;0.2;100.0;102420;;;;
2023/03/28 04:41:00;;;;;;;3.2;3.1;;;;;;;0.2;100.0;102420;;;;
2023/03/28 04:42:00;;;;;;;3.2;3.1;;;;;;;0.2;100.0;102420;;;;
2023/03/28 04:43:00;;;;;;;3.2;3.1;;;;;;;0.2;100.0;102420;;;;
2023/03/28 04:44:00;;;;;;;3.2;3.1;;;;;;;0.2;100.0;102420;;;;
2023/03/28 04:45:00;;;;;;;3.2;3.1;;;;;;;0.2;100.0;102420;;;;
2023/03/28 04:46:00;;;;;;;3.2;3.1;;;;;;;0.2;100.0;102420;;;;
2023/03/28 04:47:00;;;;;;;3.2;3.1;;;;;;;0.2;100.0;102420;;;;
2023/03/28 04:48:00;;;;;;;3.2;3.1;;;;;;;0.1;100.0;102420;;;;
2023/03/28 04:49:00;;;;;;;3.2;3.1;;;;;;;0.1;100.0;102420;;;;
2023/03/28 04:50:00;;;;;;;3.2;3.1;;;;;;;0.1;100.0;102420;;;;
2023/03/28 04:51:00;;;;;;;3.2;3.1;;;;;;;0.1;100.0;102420;;;;
2023/03/28 04:52:00;;;;;;;3.2;3.1;;;;;;;0.1;100.0;102420;;;;
2023/03/28 04:53:00;;;;;;;3.2;3.1;;;;;;;0.1;100.0;102420;;;;
2023/03/28 04:54:00;;;;;;;3.8;3.7;;;;;;;0.1;100.0;102420;;;;
2023/03/28 04:55:00;;;;;;;3.8;3.7;;;;;;;0.1;100.0;102420;;;;
2023/03/28 04:56:00;;;;;;;3.8;3.7;;;;;;;0.0;100.0;102420;;;;
2023/03/28 04:57:01;;;;;;;3.8;3.7;;;;;;;0.0;100.0;102420;;;;
2023/03/28 04:58:00;;;;;;;3.8;3.7;;;;;;;0.0;100.0;102420;;;;
2023/03/28 04:59:00;;;;;;;3.8;3.7;;;;;;;0.0;100.0;102420;;;;
2023/03/28 05:00:00;;;;;;;3.8;3.7;;;;;;;0.1;100.0;102430;;;;
2023/03/28 05:01:02;;;;;;;3.8;3.7;;;;;;;0.1;100.0;102430;;;;
2023/03/28 05:02:00;;;;;;;3.8;3.7;;;;;;;-0.0;100.0;102430;;;;
2023/03/28 05:03:00;;;;;;;3.8;3.7;;;;;;;-0.0;100.0;102430;;;;
2023/03/28 05:04:00;;;;;;;3.8;3.7;;;;;;;-0.0;100.0;102430;;;;
2023/03/28 05:05:00;;;;;;;3.8;3.7;;;;;;;-0.0;100.0;102430;;;;
2023/03/28 05:06:00;;;;;;;3.8;3.7;;;;;;;0.0;100.0;102430;;;;
2023/03/28 05:07:01;;;;;;;3.8;3.7;;;;;;;0.0;100.0;102430;;;;
2023/03/28 05:08:00;;;;;;;3.8;3.7;;;;;;;0.0;100.0;102430;;;;
2023/03/28 05:09:00;;;;;;;3.8;3.7;;;;;;;0.0;100.0;102430;;;;
2023/03/28 05:10:00;;;;;;;3.8;3.7;;;;;;;-0.1;100.0;102430;;;;
2023/03/28 05:11:00;;;;;;;3.8;3.7;;;;;;;-0.1;100.0;102430;;;;
2023/03/28 05:12:00;;;;;;;3.8;3.7;;;;;;;-0.0;100.0;102430;;;;
2023/03/28 05:13:00;;;;;;;3.8;3.7;;;;;;;-0.0;100.0;102430;;;;
2023/03/28 05:14:00;;;;;;;3.4;3.3;;;;;;;0.1;100.0;102430;;;;
2023/03/28 05:15:00;;;;;;;3.4;3.3;;;;;;;0.1;100.0;102430;;;;
2023/03/28 05:16:00;;;;;;;3.4;3.3;;;;;;;-0.0;100.0;102430;;;;
2023/03/28 05:17:00;;;;;;;3.4;3.3;;;;;;;-0.0;100.0;102430;;;;
2023/03/28 05:18:00;;;;;;;3.4;3.3;;;;;;;-0.2;100.0;102430;;;;
2023/03/28 05:19:00;;;;;;;3.4;3.3;;;;;;;-0.2;100.0;102430;;;;
2023/03/28 05:20:00;;;;;;;3.4;3.3;;;;;;;-0.2;100.0;102430;;;;
2023/03/28 05:21:00;;;;;;;3.4;3.3;;;;;;;-0.2;100.0;102430;;;;
2023/03/28 05:22:00;;;;;;;3.4;3.3;;;;;;;-0.0;100.0;102440;;;;
2023/03/28 05:23:00;;;;;;;3.4;3.3;;;;;;;-0.0;100.0;102440;;;;
2023/03/28 05:24:00;;;;;;;3.4;3.3;;;;;;;-0.0;100.0;102440;;;;
2023/03/28 05:25:00;;;;;;;3.4;3.3;;;;;;;-0.0;100.0;102440;;;;
2023/03/28 05:26:01;;;;;;;3.4;3.3;;;;;;;-0.1;100.0;102440;;;;
2023/03/28 05:27:00;;;;;;;3.4;3.3;;;;;;;-0.1;100.0;102440;;;;
2023/03/28 05:28:00;;;;;;;3.4;3.3;;;;;;;-0.1;100.0;102440;;;;
2023/03/28 05:29:00;;;;;;;3.4;3.3;;;;;;;-0.1;100.0;102440;;;;
2023/03/28 05:30:00;;;;;;;3.4;3.3;;;;;;;-0.2;100.0;102440;;;;
2023/03/28 05:31:00;;;;;;;3.4;3.3;;;;;;;-0.2;100.0;102440;;;;
2023/03/28 05:32:00;;;;;;;3.4;3.3;;;;;;;-0.2;100.0;102450;;;;
2023/03/28 05:33:00;;;;;;;3.4;3.3;;;;;;;-0.2;100.0;102450;;;;
2023/03/28 05:34:00;;;;;;;3.7;3.6;;;;;;;-0.1;100.0;102450;;;;
2023/03/28 05:35:00;;;;;;;3.7;3.6;;;;;;;-0.1;100.0;102450;;;;
2023/03/28 05:36:01;;;;;;;3.7;3.6;;;;;;;-0.2;100.0;102450;;;;
2023/03/28 05:37:00;;;;;;;3.7;3.6;;;;;;;-0.2;100.0;102450;;;;
2023/03/28 05:38:01;;;;;;;3.7;3.6;;;;;;;-0.2;100.0;102450;;;;
2023/03/28 05:39:00;;;;;;;3.7;3.6;;;;;;;-0.2;100.0;102450;;;;
2023/03/28 05:40:00;;;;;;;3.7;3.6;;;;;;;-0.1;100.0;102450;;;;
2023/03/28 05:41:01;;;;;;;3.7;3.6;;;;;;;-0.1;100.0;102450;;;;
2023/03/28 05:42:00;;;;;;;3.7;3.6;;;;;;;-0.1;100.0;102450;;;;
2023/03/28 05:43:00;;;;;;;3.7;3.6;;;;;;;-0.1;100.0;102450;;;;
2023/03/28 05:44:00;;;;;;;3.7;3.6;;;;;;;-0.1;100.0;102460;;;;
2023/03/28 05:45:00;;;;;;;3.7;3.6;;;;;;;-0.1;100.0;102460;;;;
2023/03/28 05:46:00;;;;;;;3.7;3.6;;;;;;;-0.1;100.0;102460;;;;
2023/03/28 05:47:00;;;;;;;3.7;3.6;;;;;;;-0.1;100.0;102460;;;;
2023/03/28 05:48:00;;;;;;;3.7;3.6;;;;;;;-0.1;100.0;102450;;;;
2023/03/28 05:49:00;;;;;;;3.7;3.6;;;;;;;-0.1;100.0;102450;;;;
2023/03/28 05:50:00;;;;;;;3.7;3.6;;;;;;;-0.0;100.0;102450;;;;
2023/03/28 05:51:00;;;;;;;3.7;3.6;;;;;;;-0.0;100.0;102450;;;;
2023/03/28 05:52:00;;;;;;;3.7;3.6;;;;;;;-0.2;100.0;102460;;;;
2023/03/28 05:53:00;;;;;;;3.7;3.6;;;;;;;-0.2;100.0;102460;;;;
2023/03/28 05:54:00;;;;;;;3.7;3.6;;;;;;;-0.0;100.0;102460;;;;
2023/03/28 05:55:00;;;;;;;3.7;3.6;;;;;;;-0.0;100.0;102460;;;;
2023/03/28 05:56:00;;;;;;;3.7;3.6;;;;;;;-0.0;100.0;102460;;;;
2023/03/28 05:57:00;;;;;;;3.7;3.6;;;;;;;-0.0;100.0;102460;;;;
2023/03/28 05:58:00;;;;;;;3.7;3.6;;;;;;;0.0;100.0;102460;;;;
2023/03/28 05:59:00;;;;;;;3.7;3.6;;;;;;;0.0;100.0;102460;;;;
2023/03/28 06:00:00;;;;;;;3.7;3.6;;;;;;;-0.0;100.0;102450;;;;
2023/03/28 06:01:03;;;;;;;3.7;3.6;;;;;;;-0.0;100.0;102450;;;;
2023/03/28 06:02:02;;;;;;;3.7;3.6;;;;;;;0.1;100.0;102450;;;;
2023/03/28 06:03:00;;;;;;;3.7;3.6;;;;;;;0.1;100.0;102450;;;;
2023/03/28 06:04:00;;;;;;;3.7;3.6;;;;;;;0.1;100.0;102460;;;;
2023/03/28 06:05:00;;;;;;;3.7;3.6;;;;;;;0.1;100.0;102460;;;;
2023/03/28 06:06:00;;;;;;;3.7;3.6;;;;;;;0.2;100.0;102460;;;;
2023/03/28 06:07:04;;;;;;;3.7;3.6;;;;;;;0.2;100.0;102460;;;;
2023/03/28 06:08:00;;;;;;;3.7;3.6;;;;;;;0.1;100.0;102460;;;;
2023/03/28 06:09:00;;;;;;;3.7;3.6;;;;;;;0.1;100.0;102460;;;;
2023/03/28 06:10:00;;;;;;;3.7;3.6;;;;;;;0.2;100.0;102460;;;;
2023/03/28 06:11:01;;;;;;;3.7;3.6;;;;;;;0.2;100.0;102460;;;;
2023/03/28 06:12:01;;;;;;;3.7;3.6;;;;;;;0.2;100.0;102460;;;;
2023/03/28 06:13:00;;;;;;;3.7;3.6;;;;;;;0.2;100.0;102460;;;;
2023/03/28 06:14:00;;;;;;;3.5;3.4;;;;;;;0.2;100.0;102460;;;;
2023/03/28 06:15:00;;;;;;;3.5;3.4;;;;;;;0.2;100.0;102460;;;;
2023/03/28 06:16:00;;;;;;;3.5;3.4;;;;;;;0.2;100.0;102450;;;;
2023/03/28 06:17:00;;;;;;;3.5;3.4;;;;;;;0.2;100.0;102450;;;;
2023/03/28 06:18:00;;;;;;;3.5;3.4;;;;;;;0.2;100.0;102460;;;;
2023/03/28 06:19:10;;;;;;;3.5;3.4;;;;;;;0.2;100.0;102460;;;;
2023/03/28 06:20:00;;;;;;;3.5;3.4;;;;;;;0.2;100.0;102450;;;;
2023/03/28 06:21:00;;;;;;;3.5;3.4;;;;;;;0.2;100.0;102450;;;;
2023/03/28 06:22:01;;;;;;;3.5;3.4;;;;;;;0.3;100.0;102460;;;;
2023/03/28 06:23:02;;;;;;;3.5;3.4;;;;;;;0.3;100.0;102460;;;;
2023/03/28 06:24:00;;;;;;;3.5;3.4;;;;;;;0.2;100.0;102450;;;;
2023/03/28 06:25:00;;;;;;;3.5;3.4;;;;;;;0.2;100.0;102450;;;;
2023/03/28 06:26:01;;;;;;;3.5;3.4;;;;;;;0.4;100.0;102450;;;;
2023/03/28 06:27:00;;;;;;;3.5;3.4;;;;;;;0.4;100.0;102450;;;;
2023/03/28 06:28:00;;;;;;;3.5;3.4;;;;;;;0.5;100.0;102450;;;;